sensor_id;sensor_type;location;lat;lon;timestamp;temperature;humidity
52211;DHT22;38179;52.756;6.906;2022-10-16T00:01:26;13.10;99.90
52211;DHT22;38179;52.756;6.906;2022-10-16T00:03:53;13.10;99.90
52211;DHT22;38179;52.756;6.906;2022-10-16T00:06:20;13.20;99.90
52211;DHT22;38179;52.756;6.906;2022-10-16T00:08:47;13.20;99.90
52211;DHT22;38179;52.756;6.906;2022-10-16T00:11:25;13.10;99.90
52211;DHT22;38179;52.756;6.906;2022-10-16T00:13:57;13.10;99.90
52211;DHT22;38179;52.756;6.906;2022-10-16T00:16:24;13.10;99.90
52211;DHT22;38179;52.756;6.906;2022-10-16T00:18:50;13.10;99.90
52211;DHT22;38179;52.756;6.906;2022-10-16T00:21:23;13.10;99.90
52211;DHT22;38179;52.756;6.906;2022-10-16T00:23:55;13.00;99.90
52211;DHT22;38179;52.756;6.906;2022-10-16T00:26:22;13.00;99.90
52211;DHT22;38179;52.756;6.906;2022-10-16T00:28:49;13.10;99.90
52211;DHT22;38179;52.756;6.906;2022-10-16T00:31:17;13.00;99.90
52211;DHT22;38179;52.756;6.906;2022-10-16T00:33:44;13.00;99.90
52211;DHT22;38179;52.756;6.906;2022-10-16T00:36:13;13.00;99.90
52211;DHT22;38179;52.756;6.906;2022-10-16T00:38:39;13.00;99.90
52211;DHT22;38179;52.756;6.906;2022-10-16T00:41:07;13.00;99.90
52211;DHT22;38179;52.756;6.906;2022-10-16T00:43:37;13.00;99.90
52211;DHT22;38179;52.756;6.906;2022-10-16T00:46:11;13.00;99.90
52211;DHT22;38179;52.756;6.906;2022-10-16T00:48:39;12.90;99.90
52211;DHT22;38179;52.756;6.906;2022-10-16T00:51:06;12.90;99.90
52211;DHT22;38179;52.756;6.906;2022-10-16T00:53:34;12.90;99.90
52211;DHT22;38179;52.756;6.906;2022-10-16T00:56:01;12.90;99.90
52211;DHT22;38179;52.756;6.906;2022-10-16T00:58:27;12.90;99.90
52211;DHT22;38179;52.756;6.906;2022-10-16T01:00:53;12.90;99.90
52211;DHT22;38179;52.756;6.906;2022-10-16T01:03:27;12.80;99.90
52211;DHT22;38179;52.756;6.906;2022-10-16T01:11:44;12.80;99.90
52211;DHT22;38179;52.756;6.906;2022-10-16T01:14:30;12.80;99.90
52211;DHT22;38179;52.756;6.906;2022-10-16T01:17:06;12.80;99.90
52211;DHT22;38179;52.756;6.906;2022-10-16T01:20:07;12.80;99.90
52211;DHT22;38179;52.756;6.906;2022-10-16T01:26:11;12.80;99.90
52211;DHT22;38179;52.756;6.906;2022-10-16T01:31:19;12.80;99.90
52211;DHT22;38179;52.756;6.906;2022-10-16T01:33:51;12.70;99.90
52211;DHT22;38179;52.756;6.906;2022-10-16T01:36:28;12.70;99.90
52211;DHT22;38179;52.756;6.906;2022-10-16T01:39:01;12.70;99.90
52211;DHT22;38179;52.756;6.906;2022-10-16T01:41:41;12.70;99.90
52211;DHT22;38179;52.756;6.906;2022-10-16T01:44:18;12.70;99.90
52211;DHT22;38179;52.756;6.906;2022-10-16T01:46:48;12.70;99.90
52211;DHT22;38179;52.756;6.906;2022-10-16T01:49:16;12.70;99.90
52211;DHT22;38179;52.756;6.906;2022-10-16T01:51:46;12.60;99.90
52211;DHT22;38179;52.756;6.906;2022-10-16T01:54:14;12.70;99.90
52211;DHT22;38179;52.756;6.906;2022-10-16T01:56:42;12.60;99.90
52211;DHT22;38179;52.756;6.906;2022-10-16T01:59:15;12.60;99.90
52211;DHT22;38179;52.756;6.906;2022-10-16T02:01:47;12.60;99.90
52211;DHT22;38179;52.756;6.906;2022-10-16T02:04:23;12.60;99.90
52211;DHT22;38179;52.756;6.906;2022-10-16T02:06:50;12.50;99.90
52211;DHT22;38179;52.756;6.906;2022-10-16T02:09:18;12.50;99.90
52211;DHT22;38179;52.756;6.906;2022-10-16T02:11:44;12.50;99.90
52211;DHT22;38179;52.756;6.906;2022-10-16T02:14:11;12.60;99.90
52211;DHT22;38179;52.756;6.906;2022-10-16T02:16:43;12.60;99.90
52211;DHT22;38179;52.756;6.906;2022-10-16T02:19:10;12.60;99.90
52211;DHT22;38179;52.756;6.906;2022-10-16T02:21:57;12.60;99.90
52211;DHT22;38179;52.756;6.906;2022-10-16T02:24:45;12.60;99.90
52211;DHT22;38179;52.756;6.906;2022-10-16T02:31:05;12.60;99.90
52211;DHT22;38179;52.756;6.906;2022-10-16T02:33:13;12.60;99.90
52211;DHT22;38179;52.756;6.906;2022-10-16T02:35:42;12.60;99.90
52211;DHT22;38179;52.756;6.906;2022-10-16T02:38:09;12.60;99.90
52211;DHT22;38179;52.756;6.906;2022-10-16T02:40:36;12.60;99.90
52211;DHT22;38179;52.756;6.906;2022-10-16T02:43:04;12.60;99.90
52211;DHT22;38179;52.756;6.906;2022-10-16T02:45:31;12.60;99.90
52211;DHT22;38179;52.756;6.906;2022-10-16T02:47:57;12.70;99.90
52211;DHT22;38179;52.756;6.906;2022-10-16T02:50:23;12.70;99.90
52211;DHT22;38179;52.756;6.906;2022-10-16T02:52:51;12.70;99.90
52211;DHT22;38179;52.756;6.906;2022-10-16T02:55:17;12.70;99.90
52211;DHT22;38179;52.756;6.906;2022-10-16T02:57:43;12.70;99.90
52211;DHT22;38179;52.756;6.906;2022-10-16T03:00:12;12.70;99.90
52211;DHT22;38179;52.756;6.906;2022-10-16T03:02:39;12.70;99.90
52211;DHT22;38179;52.756;6.906;2022-10-16T03:05:06;12.80;99.90
52211;DHT22;38179;52.756;6.906;2022-10-16T03:07:32;12.80;99.90
52211;DHT22;38179;52.756;6.906;2022-10-16T03:09:59;12.80;99.90
52211;DHT22;38179;52.756;6.906;2022-10-16T03:12:28;12.80;99.90
52211;DHT22;38179;52.756;6.906;2022-10-16T03:14:55;12.80;99.90
52211;DHT22;38179;52.756;6.906;2022-10-16T03:17:22;12.80;99.90
52211;DHT22;38179;52.756;6.906;2022-10-16T03:19:48;12.80;99.90
52211;DHT22;38179;52.756;6.906;2022-10-16T03:22:14;12.80;99.90
52211;DHT22;38179;52.756;6.906;2022-10-16T03:24:40;12.90;99.90
52211;DHT22;38179;52.756;6.906;2022-10-16T03:27:07;12.90;99.90
52211;DHT22;38179;52.756;6.906;2022-10-16T03:29:33;12.90;99.90
52211;DHT22;38179;52.756;6.906;2022-10-16T03:32:00;12.90;99.90
52211;DHT22;38179;52.756;6.906;2022-10-16T03:34:26;12.90;99.90
52211;DHT22;38179;52.756;6.906;2022-10-16T03:36:53;12.90;99.90
52211;DHT22;38179;52.756;6.906;2022-10-16T03:39:19;13.00;99.90
52211;DHT22;38179;52.756;6.906;2022-10-16T03:41:46;13.00;99.90
52211;DHT22;38179;52.756;6.906;2022-10-16T03:44:12;13.00;99.90
52211;DHT22;38179;52.756;6.906;2022-10-16T03:46:39;13.00;99.90
52211;DHT22;38179;52.756;6.906;2022-10-16T03:49:05;13.00;99.90
52211;DHT22;38179;52.756;6.906;2022-10-16T03:51:31;13.10;99.90
52211;DHT22;38179;52.756;6.906;2022-10-16T03:53:57;13.10;99.90
52211;DHT22;38179;52.756;6.906;2022-10-16T03:56:24;13.00;99.90
52211;DHT22;38179;52.756;6.906;2022-10-16T03:58:50;13.00;99.90
52211;DHT22;38179;52.756;6.906;2022-10-16T04:01:16;13.00;99.90
52211;DHT22;38179;52.756;6.906;2022-10-16T04:03:42;13.00;99.90
52211;DHT22;38179;52.756;6.906;2022-10-16T04:06:09;13.00;99.90
52211;DHT22;38179;52.756;6.906;2022-10-16T04:08:35;13.00;99.90
52211;DHT22;38179;52.756;6.906;2022-10-16T04:11:02;13.00;99.90
52211;DHT22;38179;52.756;6.906;2022-10-16T04:13:29;13.00;99.90
52211;DHT22;38179;52.756;6.906;2022-10-16T04:15:55;13.00;99.90
52211;DHT22;38179;52.756;6.906;2022-10-16T04:18:21;13.00;99.90
52211;DHT22;38179;52.756;6.906;2022-10-16T04:20:47;13.00;99.90
52211;DHT22;38179;52.756;6.906;2022-10-16T04:23:14;13.00;99.90
52211;DHT22;38179;52.756;6.906;2022-10-16T04:25:40;13.00;99.90
52211;DHT22;38179;52.756;6.906;2022-10-16T04:28:06;13.00;99.90
52211;DHT22;38179;52.756;6.906;2022-10-16T04:30:32;13.00;99.90
52211;DHT22;38179;52.756;6.906;2022-10-16T04:32:59;12.90;99.90
52211;DHT22;38179;52.756;6.906;2022-10-16T04:35:25;12.90;99.90
52211;DHT22;38179;52.756;6.906;2022-10-16T04:37:52;12.90;99.90
52211;DHT22;38179;52.756;6.906;2022-10-16T04:40:18;12.90;99.90
52211;DHT22;38179;52.756;6.906;2022-10-16T04:42:44;12.90;99.90
52211;DHT22;38179;52.756;6.906;2022-10-16T04:45:11;12.90;99.90
52211;DHT22;38179;52.756;6.906;2022-10-16T04:47:37;13.00;99.90
52211;DHT22;38179;52.756;6.906;2022-10-16T04:50:03;12.90;99.90
52211;DHT22;38179;52.756;6.906;2022-10-16T04:52:29;12.90;99.90
52211;DHT22;38179;52.756;6.906;2022-10-16T04:54:57;12.90;99.90
52211;DHT22;38179;52.756;6.906;2022-10-16T04:57:26;12.80;99.90
52211;DHT22;38179;52.756;6.906;2022-10-16T04:59:52;12.90;99.90
52211;DHT22;38179;52.756;6.906;2022-10-16T05:02:19;12.90;99.90
52211;DHT22;38179;52.756;6.906;2022-10-16T05:04:45;12.80;99.90
52211;DHT22;38179;52.756;6.906;2022-10-16T05:07:11;12.80;99.90
52211;DHT22;38179;52.756;6.906;2022-10-16T05:09:37;12.80;99.90
52211;DHT22;38179;52.756;6.906;2022-10-16T05:12:04;12.80;99.90
52211;DHT22;38179;52.756;6.906;2022-10-16T05:14:30;12.80;99.90
52211;DHT22;38179;52.756;6.906;2022-10-16T05:16:57;12.80;99.90
52211;DHT22;38179;52.756;6.906;2022-10-16T05:19:23;12.80;99.90
52211;DHT22;38179;52.756;6.906;2022-10-16T05:21:49;12.80;99.90
52211;DHT22;38179;52.756;6.906;2022-10-16T05:24:15;12.80;99.90
52211;DHT22;38179;52.756;6.906;2022-10-16T05:26:42;12.80;99.90
52211;DHT22;38179;52.756;6.906;2022-10-16T05:29:09;12.80;99.90
52211;DHT22;38179;52.756;6.906;2022-10-16T05:31:35;12.80;99.90
52211;DHT22;38179;52.756;6.906;2022-10-16T05:34:01;12.80;99.90
52211;DHT22;38179;52.756;6.906;2022-10-16T05:36:28;12.70;99.90
52211;DHT22;38179;52.756;6.906;2022-10-16T05:38:54;12.70;99.90
52211;DHT22;38179;52.756;6.906;2022-10-16T05:41:20;12.70;99.90
52211;DHT22;38179;52.756;6.906;2022-10-16T05:43:48;12.70;99.90
52211;DHT22;38179;52.756;6.906;2022-10-16T05:46:15;12.60;99.90
52211;DHT22;38179;52.756;6.906;2022-10-16T05:48:41;12.70;99.90
52211;DHT22;38179;52.756;6.906;2022-10-16T05:51:10;12.60;99.90
52211;DHT22;38179;52.756;6.906;2022-10-16T05:53:38;12.70;99.90
52211;DHT22;38179;52.756;6.906;2022-10-16T05:56:06;12.70;99.90
52211;DHT22;38179;52.756;6.906;2022-10-16T05:58:34;12.70;99.90
52211;DHT22;38179;52.756;6.906;2022-10-16T06:01:05;12.70;99.90
52211;DHT22;38179;52.756;6.906;2022-10-16T06:03:31;12.70;99.90
52211;DHT22;38179;52.756;6.906;2022-10-16T06:05:56;12.70;99.90
52211;DHT22;38179;52.756;6.906;2022-10-16T06:08:23;12.70;99.90
52211;DHT22;38179;52.756;6.906;2022-10-16T06:11:03;12.70;99.90
52211;DHT22;38179;52.756;6.906;2022-10-16T06:13:29;12.70;99.90
52211;DHT22;38179;52.756;6.906;2022-10-16T06:15:57;12.70;99.90
52211;DHT22;38179;52.756;6.906;2022-10-16T06:18:24;12.70;99.90
52211;DHT22;38179;52.756;6.906;2022-10-16T06:20:50;12.70;99.90
52211;DHT22;38179;52.756;6.906;2022-10-16T06:23:16;12.70;99.90
52211;DHT22;38179;52.756;6.906;2022-10-16T06:25:42;12.70;99.90
52211;DHT22;38179;52.756;6.906;2022-10-16T06:28:08;12.70;99.90
52211;DHT22;38179;52.756;6.906;2022-10-16T06:30:34;12.70;99.90
52211;DHT22;38179;52.756;6.906;2022-10-16T06:33:00;12.70;99.90
52211;DHT22;38179;52.756;6.906;2022-10-16T06:35:26;12.70;99.90
52211;DHT22;38179;52.756;6.906;2022-10-16T06:37:53;12.70;99.90
52211;DHT22;38179;52.756;6.906;2022-10-16T06:40:19;12.70;99.90
52211;DHT22;38179;52.756;6.906;2022-10-16T06:42:45;12.70;99.90
52211;DHT22;38179;52.756;6.906;2022-10-16T06:45:12;12.70;99.90
52211;DHT22;38179;52.756;6.906;2022-10-16T06:47:38;12.70;99.90
52211;DHT22;38179;52.756;6.906;2022-10-16T06:50:05;12.80;99.90
52211;DHT22;38179;52.756;6.906;2022-10-16T06:52:33;12.80;99.90
52211;DHT22;38179;52.756;6.906;2022-10-16T06:54:59;12.80;99.90
52211;DHT22;38179;52.756;6.906;2022-10-16T06:57:25;12.80;99.90
52211;DHT22;38179;52.756;6.906;2022-10-16T06:59:51;12.80;99.90
52211;DHT22;38179;52.756;6.906;2022-10-16T07:02:17;12.80;99.90
52211;DHT22;38179;52.756;6.906;2022-10-16T07:04:44;12.80;99.90
52211;DHT22;38179;52.756;6.906;2022-10-16T07:07:10;12.80;99.90
52211;DHT22;38179;52.756;6.906;2022-10-16T07:09:36;12.80;99.90
52211;DHT22;38179;52.756;6.906;2022-10-16T07:12:02;12.80;99.90
52211;DHT22;38179;52.756;6.906;2022-10-16T07:14:39;12.80;99.90
52211;DHT22;38179;52.756;6.906;2022-10-16T07:17:05;12.90;99.90
52211;DHT22;38179;52.756;6.906;2022-10-16T07:19:31;12.90;99.90
52211;DHT22;38179;52.756;6.906;2022-10-16T07:21:59;12.90;99.90
52211;DHT22;38179;52.756;6.906;2022-10-16T07:24:28;12.90;99.90
52211;DHT22;38179;52.756;6.906;2022-10-16T07:26:55;12.90;99.90
52211;DHT22;38179;52.756;6.906;2022-10-16T07:29:21;12.90;99.90
52211;DHT22;38179;52.756;6.906;2022-10-16T07:31:48;13.00;99.90
52211;DHT22;38179;52.756;6.906;2022-10-16T07:34:16;13.00;99.90
52211;DHT22;38179;52.756;6.906;2022-10-16T07:36:43;13.00;99.90
52211;DHT22;38179;52.756;6.906;2022-10-16T07:39:10;13.00;99.90
52211;DHT22;38179;52.756;6.906;2022-10-16T07:41:36;13.00;99.90
52211;DHT22;38179;52.756;6.906;2022-10-16T07:44:03;13.00;99.90
52211;DHT22;38179;52.756;6.906;2022-10-16T07:46:30;13.10;99.90
52211;DHT22;38179;52.756;6.906;2022-10-16T07:48:56;13.10;99.90
52211;DHT22;38179;52.756;6.906;2022-10-16T07:51:25;13.20;99.90
52211;DHT22;38179;52.756;6.906;2022-10-16T07:53:52;13.20;99.90
52211;DHT22;38179;52.756;6.906;2022-10-16T07:56:19;13.20;99.90
52211;DHT22;38179;52.756;6.906;2022-10-16T07:58:46;13.20;99.90
52211;DHT22;38179;52.756;6.906;2022-10-16T08:01:14;13.20;99.90
52211;DHT22;38179;52.756;6.906;2022-10-16T08:03:43;13.20;99.90
52211;DHT22;38179;52.756;6.906;2022-10-16T08:06:09;13.20;99.90
52211;DHT22;38179;52.756;6.906;2022-10-16T08:08:35;13.20;99.90
52211;DHT22;38179;52.756;6.906;2022-10-16T08:11:00;13.20;99.90
52211;DHT22;38179;52.756;6.906;2022-10-16T08:13:32;13.20;99.90
52211;DHT22;38179;52.756;6.906;2022-10-16T08:15:59;13.20;99.90
52211;DHT22;38179;52.756;6.906;2022-10-16T08:18:25;13.20;99.90
52211;DHT22;38179;52.756;6.906;2022-10-16T08:20:58;13.20;99.90
52211;DHT22;38179;52.756;6.906;2022-10-16T08:23:26;13.30;99.90
52211;DHT22;38179;52.756;6.906;2022-10-16T08:25:56;13.30;99.90
52211;DHT22;38179;52.756;6.906;2022-10-16T08:28:23;13.30;99.90
52211;DHT22;38179;52.756;6.906;2022-10-16T08:30:50;13.30;99.90
52211;DHT22;38179;52.756;6.906;2022-10-16T08:33:16;13.40;99.90
52211;DHT22;38179;52.756;6.906;2022-10-16T08:35:42;13.40;99.90
52211;DHT22;38179;52.756;6.906;2022-10-16T08:38:09;13.40;99.90
52211;DHT22;38179;52.756;6.906;2022-10-16T08:40:36;13.40;99.90
52211;DHT22;38179;52.756;6.906;2022-10-16T08:43:44;13.50;99.90
52211;DHT22;38179;52.756;6.906;2022-10-16T08:46:21;13.60;99.90
52211;DHT22;38179;52.756;6.906;2022-10-16T08:48:53;13.60;99.90
52211;DHT22;38179;52.756;6.906;2022-10-16T08:51:21;13.70;99.90
52211;DHT22;38179;52.756;6.906;2022-10-16T08:53:54;13.70;99.90
52211;DHT22;38179;52.756;6.906;2022-10-16T08:56:21;13.80;99.90
52211;DHT22;38179;52.756;6.906;2022-10-16T08:58:48;13.80;99.90
52211;DHT22;38179;52.756;6.906;2022-10-16T09:07:11;13.90;99.90
52211;DHT22;38179;52.756;6.906;2022-10-16T09:12:32;13.90;99.90
52211;DHT22;38179;52.756;6.906;2022-10-16T09:20:52;14.10;99.90
52211;DHT22;38179;52.756;6.906;2022-10-16T09:23:25;14.10;99.90
52211;DHT22;38179;52.756;6.906;2022-10-16T09:25:52;14.30;99.90
52211;DHT22;38179;52.756;6.906;2022-10-16T09:28:18;14.30;99.90
52211;DHT22;38179;52.756;6.906;2022-10-16T09:30:45;14.40;99.90
52211;DHT22;38179;52.756;6.906;2022-10-16T09:33:13;14.50;99.90
52211;DHT22;38179;52.756;6.906;2022-10-16T09:35:43;14.60;99.90
52211;DHT22;38179;52.756;6.906;2022-10-16T09:38:20;14.60;99.90
52211;DHT22;38179;52.756;6.906;2022-10-16T09:40:47;14.70;99.90
52211;DHT22;38179;52.756;6.906;2022-10-16T09:45:58;14.80;99.90
52211;DHT22;38179;52.756;6.906;2022-10-16T09:48:28;14.80;99.90
52211;DHT22;38179;52.756;6.906;2022-10-16T09:51:00;14.90;99.90
52211;DHT22;38179;52.756;6.906;2022-10-16T09:53:46;15.00;99.90
52211;DHT22;38179;52.756;6.906;2022-10-16T09:56:28;15.00;99.90
52211;DHT22;38179;52.756;6.906;2022-10-16T09:58:59;15.10;99.90
52211;DHT22;38179;52.756;6.906;2022-10-16T10:01:37;15.10;99.90
52211;DHT22;38179;52.756;6.906;2022-10-16T10:04:05;15.20;99.90
52211;DHT22;38179;52.756;6.906;2022-10-16T10:06:34;15.20;99.90
52211;DHT22;38179;52.756;6.906;2022-10-16T10:14:25;15.30;99.90
52211;DHT22;38179;52.756;6.906;2022-10-16T10:17:02;15.10;99.90
52211;DHT22;38179;52.756;6.906;2022-10-16T10:19:28;15.20;99.90
52211;DHT22;38179;52.756;6.906;2022-10-16T10:21:54;15.20;99.90
52211;DHT22;38179;52.756;6.906;2022-10-16T10:24:20;15.10;99.90
52211;DHT22;38179;52.756;6.906;2022-10-16T10:27:02;15.30;99.90
52211;DHT22;38179;52.756;6.906;2022-10-16T10:35:43;15.40;99.90
52211;DHT22;38179;52.756;6.906;2022-10-16T10:38:59;15.40;99.90
52211;DHT22;38179;52.756;6.906;2022-10-16T10:46:34;15.50;99.90
52211;DHT22;38179;52.756;6.906;2022-10-16T10:57:54;15.60;99.90
52211;DHT22;38179;52.756;6.906;2022-10-16T11:03:18;15.50;99.90
52211;DHT22;38179;52.756;6.906;2022-10-16T11:08:36;15.60;99.90
52211;DHT22;38179;52.756;6.906;2022-10-16T11:11:23;15.60;99.90
52211;DHT22;38179;52.756;6.906;2022-10-16T11:22:28;15.90;99.90
52211;DHT22;38179;52.756;6.906;2022-10-16T11:27:55;16.00;99.90
52211;DHT22;38179;52.756;6.906;2022-10-16T11:30:30;16.20;99.90
52211;DHT22;38179;52.756;6.906;2022-10-16T11:35:55;16.20;99.90
52211;DHT22;38179;52.756;6.906;2022-10-16T11:38:42;16.10;99.90
52211;DHT22;38179;52.756;6.906;2022-10-16T11:49:39;15.60;99.90
52211;DHT22;38179;52.756;6.906;2022-10-16T11:55:13;15.60;99.90
52211;DHT22;38179;52.756;6.906;2022-10-16T11:57:47;15.60;99.90
52211;DHT22;38179;52.756;6.906;2022-10-16T12:01:06;15.70;99.90
52211;DHT22;38179;52.756;6.906;2022-10-16T12:03:22;15.70;99.90
52211;DHT22;38179;52.756;6.906;2022-10-16T12:08:49;15.90;99.90
52211;DHT22;38179;52.756;6.906;2022-10-16T12:11:36;15.90;99.90
52211;DHT22;38179;52.756;6.906;2022-10-16T12:17:04;16.10;99.90
52211;DHT22;38179;52.756;6.906;2022-10-16T12:20:01;16.20;99.90
52211;DHT22;38179;52.756;6.906;2022-10-16T12:22:29;16.30;99.90
52211;DHT22;38179;52.756;6.906;2022-10-16T12:24:56;16.30;99.90
52211;DHT22;38179;52.756;6.906;2022-10-16T12:27:30;16.30;99.90
52211;DHT22;38179;52.756;6.906;2022-10-16T12:30:02;16.20;99.90
52211;DHT22;38179;52.756;6.906;2022-10-16T12:32:36;16.30;99.90
52211;DHT22;38179;52.756;6.906;2022-10-16T12:35:03;16.40;99.90
52211;DHT22;38179;52.756;6.906;2022-10-16T12:37:34;16.50;99.90
52211;DHT22;38179;52.756;6.906;2022-10-16T12:40:33;16.50;99.90
52211;DHT22;38179;52.756;6.906;2022-10-16T12:42:57;16.40;99.90
52211;DHT22;38179;52.756;6.906;2022-10-16T12:45:32;16.40;99.90
52211;DHT22;38179;52.756;6.906;2022-10-16T12:47:59;16.20;99.90
52211;DHT22;38179;52.756;6.906;2022-10-16T12:52:57;16.20;99.90
52211;DHT22;38179;52.756;6.906;2022-10-16T12:55:23;16.20;99.90
52211;DHT22;38179;52.756;6.906;2022-10-16T13:00:43;16.10;99.90
52211;DHT22;38179;52.756;6.906;2022-10-16T13:19:52;15.90;99.90
52211;DHT22;38179;52.756;6.906;2022-10-16T13:22:38;16.00;99.90
52211;DHT22;38179;52.756;6.906;2022-10-16T13:25:18;16.10;99.90
52211;DHT22;38179;52.756;6.906;2022-10-16T13:30:23;16.30;99.90
52211;DHT22;38179;52.756;6.906;2022-10-16T13:32:53;16.30;99.90
52211;DHT22;38179;52.756;6.906;2022-10-16T13:35:24;16.30;99.90
52211;DHT22;38179;52.756;6.906;2022-10-16T13:37:51;16.40;99.90
52211;DHT22;38179;52.756;6.906;2022-10-16T13:40:22;16.50;99.90
52211;DHT22;38179;52.756;6.906;2022-10-16T13:42:50;16.60;99.90
52211;DHT22;38179;52.756;6.906;2022-10-16T13:45:21;16.50;99.90
52211;DHT22;38179;52.756;6.906;2022-10-16T13:47:47;16.50;99.90
52211;DHT22;38179;52.756;6.906;2022-10-16T13:50:16;16.40;99.90
52211;DHT22;38179;52.756;6.906;2022-10-16T13:52:43;16.40;99.90
52211;DHT22;38179;52.756;6.906;2022-10-16T13:55:14;16.30;99.90
52211;DHT22;38179;52.756;6.906;2022-10-16T13:57:40;16.30;99.90
52211;DHT22;38179;52.756;6.906;2022-10-16T14:00:28;16.20;99.90
52211;DHT22;38179;52.756;6.906;2022-10-16T14:03:05;16.30;99.90
52211;DHT22;38179;52.756;6.906;2022-10-16T14:05:32;16.20;99.90
52211;DHT22;38179;52.756;6.906;2022-10-16T14:07:59;16.30;99.90
52211;DHT22;38179;52.756;6.906;2022-10-16T14:10:30;16.30;99.90
52211;DHT22;38179;52.756;6.906;2022-10-16T14:13:03;16.30;99.90
52211;DHT22;38179;52.756;6.906;2022-10-16T14:15:31;16.30;99.90
52211;DHT22;38179;52.756;6.906;2022-10-16T14:17:58;16.40;99.90
52211;DHT22;38179;52.756;6.906;2022-10-16T14:20:28;16.40;99.90
52211;DHT22;38179;52.756;6.906;2022-10-16T14:23:18;16.40;99.90
52211;DHT22;38179;52.756;6.906;2022-10-16T14:25:45;16.30;99.90
52211;DHT22;38179;52.756;6.906;2022-10-16T14:28:22;16.30;99.90
52211;DHT22;38179;52.756;6.906;2022-10-16T14:30:54;16.30;99.90
52211;DHT22;38179;52.756;6.906;2022-10-16T14:33:34;16.30;99.90
52211;DHT22;38179;52.756;6.906;2022-10-16T14:36:21;16.40;99.90
52211;DHT22;38179;52.756;6.906;2022-10-16T14:39:17;16.40;99.90
52211;DHT22;38179;52.756;6.906;2022-10-16T14:41:47;16.30;99.90
52211;DHT22;38179;52.756;6.906;2022-10-16T14:44:13;16.30;99.90
52211;DHT22;38179;52.756;6.906;2022-10-16T14:46:41;16.30;99.90
52211;DHT22;38179;52.756;6.906;2022-10-16T14:51:38;16.30;99.90
52211;DHT22;38179;52.756;6.906;2022-10-16T14:54:08;16.30;99.90
52211;DHT22;38179;52.756;6.906;2022-10-16T14:56:49;16.30;99.90
52211;DHT22;38179;52.756;6.906;2022-10-16T14:59:36;16.30;99.90
52211;DHT22;38179;52.756;6.906;2022-10-16T15:02:29;16.30;99.90
52211;DHT22;38179;52.756;6.906;2022-10-16T15:04:56;16.30;99.90
52211;DHT22;38179;52.756;6.906;2022-10-16T15:07:23;16.20;99.90
52211;DHT22;38179;52.756;6.906;2022-10-16T15:09:50;16.20;99.90
52211;DHT22;38179;52.756;6.906;2022-10-16T15:12:16;16.20;99.90
52211;DHT22;38179;52.756;6.906;2022-10-16T15:14:42;16.10;99.90
52211;DHT22;38179;52.756;6.906;2022-10-16T15:17:10;16.10;99.90
52211;DHT22;38179;52.756;6.906;2022-10-16T15:19:36;16.00;99.90
52211;DHT22;38179;52.756;6.906;2022-10-16T15:22:02;16.00;99.90
52211;DHT22;38179;52.756;6.906;2022-10-16T15:24:28;16.00;99.90
52211;DHT22;38179;52.756;6.906;2022-10-16T15:26:54;15.90;99.90
52211;DHT22;38179;52.756;6.906;2022-10-16T15:29:20;15.80;99.90
52211;DHT22;38179;52.756;6.906;2022-10-16T15:31:45;15.80;99.90
52211;DHT22;38179;52.756;6.906;2022-10-16T15:34:13;15.70;99.90
52211;DHT22;38179;52.756;6.906;2022-10-16T15:36:40;15.70;99.90
52211;DHT22;38179;52.756;6.906;2022-10-16T15:39:16;15.60;99.90
52211;DHT22;38179;52.756;6.906;2022-10-16T15:41:42;15.60;99.90
52211;DHT22;38179;52.756;6.906;2022-10-16T15:44:09;15.50;99.90
52211;DHT22;38179;52.756;6.906;2022-10-16T15:46:35;15.50;99.90
52211;DHT22;38179;52.756;6.906;2022-10-16T15:49:02;15.40;99.90
52211;DHT22;38179;52.756;6.906;2022-10-16T15:51:28;15.40;99.90
52211;DHT22;38179;52.756;6.906;2022-10-16T15:53:58;15.30;99.90
52211;DHT22;38179;52.756;6.906;2022-10-16T15:56:24;15.30;99.90
52211;DHT22;38179;52.756;6.906;2022-10-16T15:58:54;15.20;99.90
52211;DHT22;38179;52.756;6.906;2022-10-16T16:01:21;15.20;99.90
52211;DHT22;38179;52.756;6.906;2022-10-16T16:03:47;15.10;99.90
52211;DHT22;38179;52.756;6.906;2022-10-16T16:06:14;15.10;99.90
52211;DHT22;38179;52.756;6.906;2022-10-16T16:08:40;15.00;99.90
52211;DHT22;38179;52.756;6.906;2022-10-16T16:11:09;15.00;99.90
52211;DHT22;38179;52.756;6.906;2022-10-16T16:13:35;14.90;99.90
52211;DHT22;38179;52.756;6.906;2022-10-16T16:16:14;14.90;99.90
52211;DHT22;38179;52.756;6.906;2022-10-16T16:18:41;14.70;99.90
52211;DHT22;38179;52.756;6.906;2022-10-16T16:21:07;14.60;99.90
52211;DHT22;38179;52.756;6.906;2022-10-16T16:23:35;14.60;99.90
52211;DHT22;38179;52.756;6.906;2022-10-16T16:26:06;14.40;99.90
52211;DHT22;38179;52.756;6.906;2022-10-16T16:28:32;14.50;99.90
52211;DHT22;38179;52.756;6.906;2022-10-16T16:30:58;14.50;99.90
52211;DHT22;38179;52.756;6.906;2022-10-16T16:33:24;14.40;99.90
52211;DHT22;38179;52.756;6.906;2022-10-16T16:35:50;14.40;99.90
52211;DHT22;38179;52.756;6.906;2022-10-16T16:38:15;14.30;99.90
52211;DHT22;38179;52.756;6.906;2022-10-16T16:40:42;14.30;99.90
52211;DHT22;38179;52.756;6.906;2022-10-16T16:43:07;14.20;99.90
52211;DHT22;38179;52.756;6.906;2022-10-16T16:45:36;14.20;99.90
52211;DHT22;38179;52.756;6.906;2022-10-16T16:48:02;14.20;99.90
52211;DHT22;38179;52.756;6.906;2022-10-16T16:50:28;14.10;99.90
52211;DHT22;38179;52.756;6.906;2022-10-16T16:52:54;14.00;99.90
52211;DHT22;38179;52.756;6.906;2022-10-16T16:55:20;13.90;99.90
52211;DHT22;38179;52.756;6.906;2022-10-16T16:57:48;13.90;99.90
52211;DHT22;38179;52.756;6.906;2022-10-16T17:00:14;13.90;99.90
52211;DHT22;38179;52.756;6.906;2022-10-16T17:02:40;14.00;99.90
52211;DHT22;38179;52.756;6.906;2022-10-16T17:05:09;13.90;99.90
52211;DHT22;38179;52.756;6.906;2022-10-16T17:07:35;13.90;99.90
52211;DHT22;38179;52.756;6.906;2022-10-16T17:10:02;13.90;99.90
52211;DHT22;38179;52.756;6.906;2022-10-16T17:12:29;13.80;99.90
52211;DHT22;38179;52.756;6.906;2022-10-16T17:14:55;13.80;99.90
52211;DHT22;38179;52.756;6.906;2022-10-16T17:17:21;13.70;99.90
52211;DHT22;38179;52.756;6.906;2022-10-16T17:19:49;13.70;99.90
52211;DHT22;38179;52.756;6.906;2022-10-16T17:22:16;13.60;99.90
52211;DHT22;38179;52.756;6.906;2022-10-16T17:24:42;13.50;99.90
52211;DHT22;38179;52.756;6.906;2022-10-16T17:27:08;13.40;99.90
52211;DHT22;38179;52.756;6.906;2022-10-16T17:29:35;13.30;99.90
52211;DHT22;38179;52.756;6.906;2022-10-16T17:32:00;13.30;99.90
52211;DHT22;38179;52.756;6.906;2022-10-16T17:34:26;13.30;99.90
52211;DHT22;38179;52.756;6.906;2022-10-16T17:36:52;13.30;99.90
52211;DHT22;38179;52.756;6.906;2022-10-16T17:39:19;13.30;99.90
52211;DHT22;38179;52.756;6.906;2022-10-16T17:41:46;13.30;99.90
52211;DHT22;38179;52.756;6.906;2022-10-16T17:44:13;13.20;99.90
52211;DHT22;38179;52.756;6.906;2022-10-16T17:46:46;13.20;99.90